Accueil
METAR-TAF:

METAR-TAF

Aéroports :

Aérodrome d'Arvidsjaur

Arvidsjaur, Suède

latitude: 65-35-25N, longitude: 019-16-55E, altitude: 379 m

Observation

Le bulletin a été fait il y a 26 minutes, à 01:50 UTC
Vent 3 kt de nord-est
Température 15°C
Humidité 88%
Pression 1017 hPa
Visibilité 10 km ou plus

METAR: ESNX 190150Z AUTO 05003KT 9999 NCD 15/13 Q1017

Heure: 04:16 (02:16 UTC)

Prévision

Le bulletin a été fait il y a 20 heures et 46 minutes, à 05:30 UTC
Prévision valable du 18 à 06 UTC au 18 à 08 UTC
Vent 4 kt de est/sud-est
Visibilité 10 km ou plus
pas de nuages en-dessous de 1500 mètres et pas de cumulonimbus.

TAF: ESNX 180530Z 1806/1808 12004KT CAVOK

Observations et prévisions météorologiques de plus de 4000 aéroports (messages METAR et TAF).

Les stations disponibles sont représentées par des disques jaunes et rouges sur la carte.

Passer la souris dessus pour voir le nom de la station.

Cliquer dessus pour voir les observations et prévisions météorologiques.

Pour changer de carte: cliquez sur les boutons verts avec une croix noire pour zoomer, sur le bouton vert avec un tiret pour effectuer un zoom arrière, ou sur les flèches vertes pour les cartes adjacentes.


METAR-TAF: